createdAt,value
2023-01-07T00:00:58.794Z,1015.40
2023-01-07T00:02:02.869Z,1015.42
2023-01-07T00:03:07.060Z,1015.39
2023-01-07T00:04:11.282Z,1015.35
2023-01-07T00:05:15.421Z,1015.35
2023-01-07T00:06:19.631Z,1015.35
2023-01-07T00:07:23.884Z,1015.38
2023-01-07T00:08:28.080Z,1015.39
2023-01-07T00:09:32.302Z,1015.40
2023-01-07T00:10:36.470Z,1015.41
2023-01-07T00:11:40.670Z,1015.43
2023-01-07T00:12:44.932Z,1015.40
2023-01-07T00:13:49.101Z,1015.39
2023-01-07T00:14:53.371Z,1015.39
2023-01-07T00:15:57.607Z,1015.40
2023-01-07T00:17:01.991Z,1015.40
2023-01-07T00:18:06.029Z,1015.41
2023-01-07T00:19:10.249Z,1015.37
2023-01-07T00:20:14.440Z,1015.34
2023-01-07T00:21:18.647Z,1015.33
2023-01-07T00:22:22.860Z,1015.33
2023-01-07T00:23:27.061Z,1015.30
2023-01-07T00:24:31.281Z,1015.27
2023-01-07T00:25:38.673Z,1015.25
2023-01-07T00:26:42.077Z,1015.25
2023-01-07T00:27:46.145Z,1015.25
2023-01-07T00:28:50.383Z,1015.28
2023-01-07T00:29:54.673Z,1015.27
2023-01-07T00:30:58.938Z,1015.28
2023-01-07T00:32:03.124Z,1015.23
2023-01-07T00:33:07.509Z,1015.22
2023-01-07T00:34:11.572Z,1015.18
2023-01-07T00:35:15.793Z,1015.17
2023-01-07T00:36:19.900Z,1015.21
2023-01-07T00:37:24.227Z,1015.26
2023-01-07T00:38:28.403Z,1015.24
2023-01-07T00:39:32.664Z,1015.25
2023-01-07T00:40:36.871Z,1015.28
2023-01-07T00:41:41.025Z,1015.31
2023-01-07T00:42:45.321Z,1015.32
2023-01-07T00:43:49.526Z,1015.33
2023-01-07T00:44:53.705Z,1015.28
2023-01-07T00:45:58.042Z,1015.25
2023-01-07T00:47:02.175Z,1015.23
2023-01-07T00:48:06.403Z,1015.23
2023-01-07T00:49:10.782Z,1015.24
2023-01-07T00:50:14.941Z,1015.22
2023-01-07T00:51:19.333Z,1015.21
2023-01-07T00:52:23.437Z,1015.21
2023-01-07T00:53:27.636Z,1015.22
2023-01-07T00:54:31.868Z,1015.22
2023-01-07T00:55:36.114Z,1015.21
2023-01-07T00:56:40.397Z,1015.19
2023-01-07T00:57:44.576Z,1015.19
2023-01-07T00:58:48.758Z,1015.21
2023-01-07T00:59:53.042Z,1015.22
2023-01-07T01:00:57.392Z,1015.24
2023-01-07T01:02:01.707Z,1015.27
2023-01-07T01:03:05.669Z,1015.29
2023-01-07T01:04:09.994Z,1015.28
2023-01-07T01:05:14.218Z,1015.31
2023-01-07T01:06:18.394Z,1015.30
2023-01-07T01:07:22.560Z,1015.26
2023-01-07T01:08:26.766Z,1015.23
2023-01-07T01:09:30.973Z,1015.23
2023-01-07T01:10:35.179Z,1015.25
2023-01-07T01:11:39.397Z,1015.23
2023-01-07T01:12:43.622Z,1015.21
2023-01-07T01:13:47.799Z,1015.20
2023-01-07T01:14:52.105Z,1015.18
2023-01-07T01:15:56.278Z,1015.20
2023-01-07T01:17:00.466Z,1015.19
2023-01-07T01:18:04.698Z,1015.20
2023-01-07T01:19:08.956Z,1015.16
2023-01-07T01:20:13.229Z,1015.19
2023-01-07T01:21:17.472Z,1015.23
2023-01-07T01:22:35.644Z,1015.25
2023-01-07T01:23:38.703Z,1015.25
2023-01-07T01:24:42.850Z,1015.26
2023-01-07T01:25:47.036Z,1015.25
2023-01-07T01:26:51.268Z,1015.24
2023-01-07T01:27:55.414Z,1015.22
2023-01-07T01:28:59.570Z,1015.22
2023-01-07T01:30:03.782Z,1015.22
2023-01-07T01:31:08.179Z,1015.21
2023-01-07T01:32:12.165Z,1015.20
2023-01-07T01:33:16.490Z,1015.21
2023-01-07T01:34:20.629Z,1015.22
2023-01-07T01:35:24.920Z,1015.24
2023-01-07T01:36:29.220Z,1015.23
2023-01-07T01:37:33.313Z,1015.25
2023-01-07T01:38:37.578Z,1015.26
2023-01-07T01:39:41.741Z,1015.29
2023-01-07T01:40:45.923Z,1015.32
2023-01-07T01:41:50.124Z,1015.32
2023-01-07T01:42:54.396Z,1015.30
2023-01-07T01:43:58.561Z,1015.32
2023-01-07T01:45:02.783Z,1015.33
2023-01-07T01:46:06.970Z,1015.33
2023-01-07T01:47:11.152Z,1015.34
2023-01-07T01:48:15.375Z,1015.38
2023-01-07T01:49:19.576Z,1015.37
2023-01-07T01:50:23.776Z,1015.37
2023-01-07T01:51:27.991Z,1015.38
2023-01-07T01:52:32.426Z,1015.35
2023-01-07T01:53:36.556Z,1015.35
2023-01-07T01:54:40.840Z,1015.34
2023-01-07T01:55:45.083Z,1015.34
2023-01-07T01:56:49.356Z,1015.35
2023-01-07T01:57:53.505Z,1015.33
2023-01-07T01:58:57.721Z,1015.30
2023-01-07T02:00:01.931Z,1015.31
2023-01-07T02:01:06.271Z,1015.30
2023-01-07T02:02:10.503Z,1015.30
2023-01-07T02:03:14.567Z,1015.30
2023-01-07T02:04:18.827Z,1015.27
2023-01-07T02:05:23.116Z,1015.24
2023-01-07T02:06:27.239Z,1015.19
2023-01-07T02:07:31.578Z,1015.19
2023-01-07T02:08:35.895Z,1015.19
2023-01-07T02:09:39.924Z,1015.18
2023-01-07T02:10:44.129Z,1015.19
2023-01-07T02:11:48.321Z,1015.18
2023-01-07T02:12:52.549Z,1015.18
2023-01-07T02:13:56.752Z,1015.15
2023-01-07T02:15:00.977Z,1015.14
2023-01-07T02:16:05.337Z,1015.11
2023-01-07T02:17:09.360Z,1015.11
2023-01-07T02:18:27.584Z,1015.10
2023-01-07T02:19:30.669Z,1015.07
2023-01-07T02:20:34.852Z,1015.07
2023-01-07T02:21:39.033Z,1015.06
2023-01-07T02:22:43.329Z,1015.04
2023-01-07T02:25:14.829Z,1015.04
2023-01-07T02:26:18.969Z,1015.07
2023-01-07T02:27:23.069Z,1015.03
2023-01-07T02:28:27.255Z,1015.03
2023-01-07T02:29:31.473Z,1015.02
2023-01-07T02:30:35.665Z,1014.97
2023-01-07T02:31:39.890Z,1014.96
2023-01-07T02:32:44.065Z,1014.94
2023-01-07T02:33:48.234Z,1014.92
2023-01-07T02:34:52.570Z,1014.93
2023-01-07T02:35:56.729Z,1014.92
2023-01-07T02:37:00.960Z,1014.92
2023-01-07T02:38:05.175Z,1014.94
2023-01-07T02:39:09.518Z,1014.92
2023-01-07T02:40:13.619Z,1014.93
2023-01-07T02:41:17.979Z,1014.91
2023-01-07T02:42:22.084Z,1014.91
2023-01-07T02:43:26.261Z,1014.97
2023-01-07T02:44:30.553Z,1015.01
2023-01-07T02:45:34.844Z,1015.03
2023-01-07T02:46:39.012Z,1015.06
2023-01-07T02:47:43.305Z,1015.03
2023-01-07T02:48:47.522Z,1015.05
2023-01-07T02:49:51.695Z,1015.04
2023-01-07T02:50:55.969Z,1015.02
2023-01-07T02:52:00.192Z,1015.05
2023-01-07T02:53:04.476Z,1015.05
2023-01-07T02:54:08.593Z,1015.06
2023-01-07T02:55:12.858Z,1015.04
2023-01-07T02:56:16.999Z,1015.01
2023-01-07T02:57:21.352Z,1015.00
2023-01-07T02:58:25.454Z,1014.99
2023-01-07T02:59:29.712Z,1014.96
2023-01-07T03:00:34.091Z,1014.93
2023-01-07T03:01:38.329Z,1014.93
2023-01-07T03:02:42.305Z,1014.92
2023-01-07T03:03:46.539Z,1014.91
2023-01-07T03:04:50.934Z,1014.91
2023-01-07T03:05:55.022Z,1014.89
2023-01-07T03:06:59.219Z,1014.89
2023-01-07T03:08:03.466Z,1014.89
2023-01-07T03:09:07.682Z,1014.89
2023-01-07T03:10:11.835Z,1014.89
2023-01-07T03:11:16.041Z,1014.89
2023-01-07T03:12:20.260Z,1014.86
2023-01-07T03:13:24.663Z,1014.88
2023-01-07T03:14:28.751Z,1014.88
2023-01-07T03:15:32.914Z,1014.89
2023-01-07T03:16:37.119Z,1014.86
2023-01-07T03:17:44.307Z,1014.88
2023-01-07T03:18:47.637Z,1014.88
2023-01-07T03:19:51.749Z,1014.89
2023-01-07T03:20:56.023Z,1014.87
2023-01-07T03:22:00.217Z,1014.83
2023-01-07T03:23:04.410Z,1014.81
2023-01-07T03:24:08.588Z,1014.82
2023-01-07T03:25:12.837Z,1014.81
2023-01-07T03:26:17.136Z,1014.82
2023-01-07T03:27:21.339Z,1014.80
2023-01-07T03:28:25.643Z,1014.80
2023-01-07T03:29:29.995Z,1014.80
2023-01-07T03:30:34.026Z,1014.77
2023-01-07T03:31:38.249Z,1014.80
2023-01-07T03:32:42.437Z,1014.76
2023-01-07T03:33:46.633Z,1014.71
2023-01-07T03:34:50.824Z,1014.65
2023-01-07T03:35:55.008Z,1014.64
2023-01-07T03:36:59.221Z,1014.64
2023-01-07T03:38:03.461Z,1014.63
2023-01-07T03:39:07.629Z,1014.65
2023-01-07T03:40:25.900Z,1014.64
2023-01-07T03:41:28.998Z,1014.59
2023-01-07T03:42:33.129Z,1014.53
2023-01-07T03:43:37.260Z,1014.51
2023-01-07T03:44:41.626Z,1014.54
2023-01-07T03:45:59.784Z,1014.53
2023-01-07T03:47:02.824Z,1014.48
2023-01-07T03:48:06.937Z,1014.47
2023-01-07T03:49:11.228Z,1014.47
2023-01-07T03:50:15.375Z,1014.48
2023-01-07T03:51:19.618Z,1014.48
2023-01-07T03:52:23.930Z,1014.47
2023-01-07T03:53:28.054Z,1014.43
2023-01-07T03:54:32.208Z,1014.42
2023-01-07T03:55:36.429Z,1014.43
2023-01-07T03:56:40.670Z,1014.41
2023-01-07T03:57:44.840Z,1014.38
2023-01-07T03:58:48.971Z,1014.38
2023-01-07T03:59:56.562Z,1014.38
2023-01-07T04:00:59.866Z,1014.39
2023-01-07T04:02:04.089Z,1014.39
2023-01-07T04:03:08.140Z,1014.36
2023-01-07T04:04:12.395Z,1014.33
2023-01-07T04:05:16.562Z,1014.29
2023-01-07T04:06:20.774Z,1014.24
2023-01-07T04:07:25.080Z,1014.20
2023-01-07T04:08:29.255Z,1014.22
2023-01-07T04:09:33.491Z,1014.24
2023-01-07T04:10:37.729Z,1014.25
2023-01-07T04:11:41.892Z,1014.26
2023-01-07T04:12:46.079Z,1014.27
2023-01-07T04:13:50.309Z,1014.24
2023-01-07T04:14:54.513Z,1014.21
2023-01-07T04:15:58.819Z,1014.23
2023-01-07T04:17:17.107Z,1014.23
2023-01-07T04:18:20.384Z,1014.24
2023-01-07T04:19:30.538Z,1014.22
2023-01-07T04:20:33.344Z,1014.22
2023-01-07T04:21:37.491Z,1014.23
2023-01-07T04:22:41.713Z,1014.25
2023-01-07T04:23:45.896Z,1014.27
2023-01-07T04:24:50.080Z,1014.25
2023-01-07T04:25:57.245Z,1014.23
2023-01-07T04:27:00.491Z,1014.24
2023-01-07T04:28:04.785Z,1014.24
2023-01-07T04:29:08.956Z,1014.23
2023-01-07T04:30:13.155Z,1014.21
2023-01-07T04:31:17.490Z,1014.25
2023-01-07T04:32:21.551Z,1014.27
2023-01-07T04:33:25.831Z,1014.27
2023-01-07T04:34:29.973Z,1014.23
2023-01-07T04:35:34.251Z,1014.19
2023-01-07T04:36:38.433Z,1014.17
2023-01-07T04:37:42.568Z,1014.21
2023-01-07T04:38:46.794Z,1014.20
2023-01-07T04:39:51.025Z,1014.19
2023-01-07T04:40:55.302Z,1014.19
2023-01-07T04:41:59.420Z,1014.16
2023-01-07T04:43:03.628Z,1014.13
2023-01-07T04:44:07.868Z,1014.13
2023-01-07T04:45:12.077Z,1014.13
2023-01-07T04:46:16.398Z,1014.09
2023-01-07T04:47:20.644Z,1014.05
2023-01-07T04:48:24.799Z,1014.05
2023-01-07T04:49:29.007Z,1014.04
2023-01-07T04:50:33.226Z,1014.03
2023-01-07T04:51:37.424Z,1014.00
2023-01-07T04:52:41.664Z,1013.98
2023-01-07T04:53:45.873Z,1013.98
2023-01-07T04:54:50.074Z,1013.96
2023-01-07T04:55:54.287Z,1013.95
2023-01-07T04:56:58.577Z,1013.98
2023-01-07T04:58:02.763Z,1014.02
2023-01-07T04:59:06.935Z,1014.02
2023-01-07T05:00:11.011Z,1014.01
2023-01-07T05:01:15.519Z,1013.96
2023-01-07T05:02:19.758Z,1013.96
2023-01-07T05:03:23.907Z,1013.95
2023-01-07T05:04:28.151Z,1013.95
2023-01-07T05:05:32.212Z,1013.94
2023-01-07T05:06:36.488Z,1013.96
2023-01-07T05:07:40.737Z,1013.96
2023-01-07T05:08:45.001Z,1013.98
2023-01-07T05:09:49.256Z,1013.95
2023-01-07T05:10:53.395Z,1013.99
2023-01-07T05:11:57.782Z,1013.98
2023-01-07T05:13:01.887Z,1013.99
2023-01-07T05:14:06.096Z,1013.97
2023-01-07T05:15:10.321Z,1013.97
2023-01-07T05:16:14.542Z,1013.99
2023-01-07T05:17:18.723Z,1014.02
2023-01-07T05:18:23.045Z,1014.02
2023-01-07T05:19:27.375Z,1014.05
2023-01-07T05:20:31.450Z,1014.03
2023-01-07T05:21:35.677Z,1014.01
2023-01-07T05:22:39.901Z,1013.98
2023-01-07T05:23:44.134Z,1013.95
2023-01-07T05:24:48.362Z,1013.94
2023-01-07T05:25:52.670Z,1013.90
2023-01-07T05:26:56.853Z,1013.89
2023-01-07T05:28:01.084Z,1013.87
2023-01-07T05:29:05.277Z,1013.84
2023-01-07T05:30:09.453Z,1013.83
2023-01-07T05:31:13.853Z,1013.82
2023-01-07T05:32:18.017Z,1013.82
2023-01-07T05:33:22.239Z,1013.82
2023-01-07T05:34:26.419Z,1013.80
2023-01-07T05:35:30.859Z,1013.82
2023-01-07T05:36:34.863Z,1013.81
2023-01-07T05:37:39.111Z,1013.83
2023-01-07T05:38:43.295Z,1013.86
2023-01-07T05:39:47.633Z,1013.83
2023-01-07T05:40:51.770Z,1013.84
2023-01-07T05:41:56.012Z,1013.84
2023-01-07T05:43:00.236Z,1013.84
2023-01-07T05:44:04.429Z,1013.81
2023-01-07T05:45:08.649Z,1013.82
2023-01-07T05:46:12.958Z,1013.83
2023-01-07T05:47:17.084Z,1013.84
2023-01-07T05:48:21.386Z,1013.85
2023-01-07T05:49:25.562Z,1013.85
2023-01-07T05:50:29.772Z,1013.82
2023-01-07T05:51:34.163Z,1013.84
2023-01-07T05:52:38.224Z,1013.83
2023-01-07T05:53:42.462Z,1013.83
2023-01-07T05:54:46.694Z,1013.79
2023-01-07T05:55:50.922Z,1013.83
2023-01-07T05:56:55.174Z,1013.85
2023-01-07T05:57:59.379Z,1013.86
2023-01-07T05:59:03.700Z,1013.88
2023-01-07T06:00:08.129Z,1013.90
2023-01-07T06:01:12.356Z,1013.91
2023-01-07T06:02:16.425Z,1013.94
2023-01-07T06:03:20.680Z,1013.93
2023-01-07T06:04:24.881Z,1013.92
2023-01-07T06:05:29.030Z,1013.94
2023-01-07T06:06:33.262Z,1013.93
2023-01-07T06:07:37.563Z,1013.93
2023-01-07T06:08:41.725Z,1013.95
2023-01-07T06:09:46.017Z,1013.98
2023-01-07T06:10:50.229Z,1013.95
2023-01-07T06:11:54.515Z,1013.94
2023-01-07T06:12:58.667Z,1013.94
2023-01-07T06:14:02.895Z,1013.91
2023-01-07T06:15:07.137Z,1013.91
2023-01-07T06:16:11.511Z,1013.89
2023-01-07T06:17:15.613Z,1013.86
2023-01-07T06:18:19.867Z,1013.86
2023-01-07T06:19:24.055Z,1013.84
2023-01-07T06:20:28.284Z,1013.82
2023-01-07T06:21:32.509Z,1013.82
2023-01-07T06:22:36.791Z,1013.82
2023-01-07T06:23:41.100Z,1013.78
2023-01-07T06:24:45.323Z,1013.81
2023-01-07T06:25:49.499Z,1013.85
2023-01-07T06:26:53.715Z,1013.88
2023-01-07T06:27:58.045Z,1013.87
2023-01-07T06:29:02.243Z,1013.87
2023-01-07T06:30:06.516Z,1013.85
2023-01-07T06:31:10.745Z,1013.86
2023-01-07T06:32:14.926Z,1013.85
2023-01-07T06:33:19.133Z,1013.82
2023-01-07T06:34:23.403Z,1013.79
2023-01-07T06:35:27.726Z,1013.80
2023-01-07T06:36:31.806Z,1013.75
2023-01-07T06:37:36.105Z,1013.75
2023-01-07T06:38:40.316Z,1013.75
2023-01-07T06:39:47.559Z,1013.74
2023-01-07T06:40:50.811Z,1013.73
2023-01-07T06:41:55.038Z,1013.71
2023-01-07T06:42:59.211Z,1013.71
2023-01-07T06:44:03.504Z,1013.73
2023-01-07T06:45:07.761Z,1013.73
2023-01-07T06:46:11.975Z,1013.74
2023-01-07T06:47:16.262Z,1013.75
2023-01-07T06:48:20.419Z,1013.74
2023-01-07T06:49:24.665Z,1013.71
2023-01-07T06:50:42.937Z,1013.72
2023-01-07T06:51:46.003Z,1013.75
2023-01-07T06:52:50.106Z,1013.76
2023-01-07T06:53:54.289Z,1013.77
2023-01-07T06:54:58.764Z,1013.73
2023-01-07T06:56:02.783Z,1013.72
2023-01-07T06:57:07.055Z,1013.71
2023-01-07T06:58:11.275Z,1013.67
2023-01-07T06:59:15.457Z,1013.69
2023-01-07T07:00:19.686Z,1013.71
2023-01-07T07:01:24.136Z,1013.72
2023-01-07T07:02:28.320Z,1013.72
2023-01-07T07:03:32.375Z,1013.69
2023-01-07T07:04:36.634Z,1013.70
2023-01-07T07:05:40.924Z,1013.67
2023-01-07T07:06:45.114Z,1013.70
2023-01-07T07:07:49.347Z,1013.70
2023-01-07T07:08:53.563Z,1013.68
2023-01-07T07:09:57.779Z,1013.67
2023-01-07T07:11:02.157Z,1013.67
2023-01-07T07:12:06.325Z,1013.67
2023-01-07T07:13:10.602Z,1013.63
2023-01-07T07:14:14.753Z,1013.64
2023-01-07T07:15:33.002Z,1013.65
2023-01-07T07:16:36.004Z,1013.63
2023-01-07T07:17:40.195Z,1013.64
2023-01-07T07:18:44.465Z,1013.62
2023-01-07T07:19:48.612Z,1013.61
2023-01-07T07:20:52.830Z,1013.60
2023-01-07T07:23:24.082Z,1013.63
2023-01-07T07:24:28.223Z,1013.59
2023-01-07T07:25:32.456Z,1013.61
2023-01-07T07:26:36.730Z,1013.59
2023-01-07T07:27:40.816Z,1013.58
2023-01-07T07:28:45.045Z,1013.61
2023-01-07T07:29:49.259Z,1013.60
2023-01-07T07:30:53.531Z,1013.61
2023-01-07T07:31:58.592Z,1013.60
2023-01-07T07:33:01.831Z,1013.57
2023-01-07T07:34:06.114Z,1013.57
2023-01-07T07:35:10.277Z,1013.55
2023-01-07T07:36:14.570Z,1013.56
2023-01-07T07:37:18.727Z,1013.55
2023-01-07T07:38:22.973Z,1013.54
2023-01-07T07:39:27.231Z,1013.57
2023-01-07T07:40:31.413Z,1013.56
2023-01-07T07:41:35.665Z,1013.55
2023-01-07T07:43:11.118Z,1013.58
2023-01-07T07:43:44.125Z,1013.59
2023-01-07T07:44:48.356Z,1013.60
2023-01-07T07:45:52.530Z,1013.61
2023-01-07T07:46:56.813Z,1013.63
2023-01-07T07:48:01.013Z,1013.64
2023-01-07T07:49:05.204Z,1013.67
2023-01-07T07:50:09.424Z,1013.68
2023-01-07T07:51:13.720Z,1013.68
2023-01-07T07:52:17.985Z,1013.68
2023-01-07T07:53:22.165Z,1013.70
2023-01-07T07:54:26.427Z,1013.68
2023-01-07T07:55:30.639Z,1013.69
2023-01-07T07:56:34.844Z,1013.68
2023-01-07T07:57:39.055Z,1013.66
2023-01-07T07:58:43.422Z,1013.65
2023-01-07T07:59:47.508Z,1013.63
2023-01-07T08:00:51.841Z,1013.62
2023-01-07T08:01:55.991Z,1013.61
2023-01-07T08:03:00.291Z,1013.60
2023-01-07T08:04:05.414Z,1013.60
2023-01-07T08:05:09.313Z,1013.63
2023-01-07T08:06:13.489Z,1013.64
2023-01-07T08:07:33.308Z,1013.62
2023-01-07T08:08:22.150Z,1013.60
2023-01-07T08:09:26.380Z,1013.58
2023-01-07T08:10:30.558Z,1013.60
2023-01-07T08:11:34.755Z,1013.61
2023-01-07T08:12:39.006Z,1013.61
2023-01-07T08:13:43.227Z,1013.59
2023-01-07T08:14:47.559Z,1013.59
2023-01-07T08:15:51.792Z,1013.60
2023-01-07T08:16:56.020Z,1013.61
2023-01-07T08:18:00.239Z,1013.60
2023-01-07T08:19:04.457Z,1013.61
2023-01-07T08:20:08.684Z,1013.59
2023-01-07T08:21:12.979Z,1013.59
2023-01-07T08:22:17.183Z,1013.58
2023-01-07T08:23:21.471Z,1013.55
2023-01-07T08:24:25.683Z,1013.55
2023-01-07T08:25:29.937Z,1013.53
2023-01-07T08:26:34.142Z,1013.52
2023-01-07T08:27:38.253Z,1013.50
2023-01-07T08:28:42.528Z,1013.50
2023-01-07T08:29:46.757Z,1013.51
2023-01-07T08:30:54.143Z,1013.52
2023-01-07T08:31:57.442Z,1013.51
2023-01-07T08:33:01.561Z,1013.51
2023-01-07T08:34:05.857Z,1013.52
2023-01-07T08:35:10.038Z,1013.54
2023-01-07T08:36:22.497Z,1013.53
2023-01-07T08:37:18.462Z,1013.52
2023-01-07T08:38:22.745Z,1013.51
2023-01-07T08:39:26.922Z,1013.53
2023-01-07T08:40:31.185Z,1013.49
2023-01-07T08:41:35.451Z,1013.50
2023-01-07T08:42:39.657Z,1013.47
2023-01-07T08:43:43.869Z,1013.48
2023-01-07T08:44:48.148Z,1013.50
2023-01-07T08:45:52.473Z,1013.54
2023-01-07T08:46:56.921Z,1013.53
2023-01-07T08:48:00.914Z,1013.53
2023-01-07T08:49:05.141Z,1013.54
2023-01-07T08:50:09.488Z,1013.53
2023-01-07T08:51:13.681Z,1013.52
2023-01-07T08:52:20.918Z,1013.50
2023-01-07T08:53:24.312Z,1013.50
2023-01-07T08:54:28.589Z,1013.48
2023-01-07T08:55:35.775Z,1013.49
2023-01-07T08:56:39.058Z,1013.45
2023-01-07T08:57:43.300Z,1013.44
2023-01-07T08:58:47.532Z,1013.46
2023-01-07T08:59:51.763Z,1013.44
2023-01-07T09:00:56.252Z,1013.46
2023-01-07T09:02:00.537Z,1013.45
2023-01-07T09:03:04.548Z,1013.45
2023-01-07T09:04:08.746Z,1013.41
2023-01-07T09:05:12.959Z,1013.40
2023-01-07T09:06:17.196Z,1013.37
2023-01-07T09:07:21.437Z,1013.38
2023-01-07T09:08:26.629Z,1013.38
2023-01-07T09:09:32.167Z,1013.36
2023-01-07T09:10:35.894Z,1013.35
2023-01-07T09:11:40.058Z,1013.33
2023-01-07T09:12:44.252Z,1013.31
2023-01-07T09:13:48.505Z,1013.28
2023-01-07T09:14:53.724Z,1013.25
2023-01-07T09:15:57.568Z,1013.25
2023-01-07T09:17:01.819Z,1013.23
2023-01-07T09:18:06.171Z,1013.25
2023-01-07T09:19:10.321Z,1013.26
2023-01-07T09:20:14.590Z,1013.24
2023-01-07T09:21:18.874Z,1013.24
2023-01-07T09:22:23.170Z,1013.27
2023-01-07T09:23:27.343Z,1013.31
2023-01-07T09:24:31.674Z,1013.30
2023-01-07T09:25:35.846Z,1013.30
2023-01-07T09:26:40.014Z,1013.33
2023-01-07T09:27:44.246Z,1013.33
2023-01-07T09:28:48.463Z,1013.34
2023-01-07T09:29:53.719Z,1013.32
2023-01-07T09:30:57.490Z,1013.31
2023-01-07T09:32:01.656Z,1013.30
2023-01-07T09:33:05.949Z,1013.31
2023-01-07T09:34:10.137Z,1013.30
2023-01-07T09:35:14.282Z,1013.29
2023-01-07T09:36:18.551Z,1013.28
2023-01-07T09:37:22.778Z,1013.28
2023-01-07T09:38:27.059Z,1013.29
2023-01-07T09:39:31.275Z,1013.28
2023-01-07T09:40:35.486Z,1013.31
2023-01-07T09:41:39.701Z,1013.32
2023-01-07T09:42:43.928Z,1013.31
2023-01-07T09:44:00.428Z,1013.31
2023-01-07T09:44:52.367Z,1013.30
2023-01-07T09:45:56.687Z,1013.29
2023-01-07T09:47:00.786Z,1013.31
2023-01-07T09:48:05.004Z,1013.31
2023-01-07T09:49:09.222Z,1013.28
2023-01-07T09:50:13.554Z,1013.31
2023-01-07T09:51:17.615Z,1013.28
2023-01-07T09:52:21.937Z,1013.30
2023-01-07T09:53:26.152Z,1013.28
2023-01-07T09:54:30.504Z,1013.21
2023-01-07T09:55:34.694Z,1013.26
2023-01-07T09:56:38.912Z,1013.24
2023-01-07T09:57:43.120Z,1013.20
2023-01-07T09:58:47.378Z,1013.19
2023-01-07T09:59:51.713Z,1013.20
2023-01-07T10:00:56.045Z,1013.19
2023-01-07T10:02:00.172Z,1013.17
2023-01-07T10:03:04.346Z,1013.18
2023-01-07T10:04:08.711Z,1013.17
2023-01-07T10:05:12.946Z,1013.17
2023-01-07T10:06:17.378Z,1013.18
2023-01-07T10:07:21.440Z,1013.15
2023-01-07T10:08:29.129Z,1013.16
2023-01-07T10:09:29.953Z,1013.15
2023-01-07T10:10:34.294Z,1013.12
2023-01-07T10:11:38.477Z,1013.10
2023-01-07T10:12:42.688Z,1013.11
2023-01-07T10:13:46.947Z,1013.09
2023-01-07T10:14:51.190Z,1013.10
2023-01-07T10:15:55.546Z,1013.10
2023-01-07T10:16:59.671Z,1013.10
2023-01-07T10:18:03.915Z,1013.10
2023-01-07T10:19:11.106Z,1013.13
2023-01-07T10:20:14.378Z,1013.11
2023-01-07T10:21:18.573Z,1013.11
2023-01-07T10:22:23.012Z,1013.12
2023-01-07T10:23:27.067Z,1013.06
2023-01-07T10:24:31.396Z,1013.09
2023-01-07T10:25:35.685Z,1013.09
2023-01-07T10:26:39.985Z,1013.07
2023-01-07T10:27:44.174Z,1013.04
2023-01-07T10:28:48.261Z,1013.02
2023-01-07T10:29:52.567Z,1013.03
2023-01-07T10:30:56.811Z,1013.01
2023-01-07T10:32:01.191Z,1012.98
2023-01-07T10:33:05.367Z,1012.99
2023-01-07T10:34:09.593Z,1012.98
2023-01-07T10:35:13.956Z,1012.99
2023-01-07T10:36:18.084Z,1013.01
2023-01-07T10:37:22.435Z,1013.03
2023-01-07T10:38:26.850Z,1013.02
2023-01-07T10:39:30.928Z,1012.99
2023-01-07T10:40:35.278Z,1013.01
2023-01-07T10:41:39.492Z,1013.01
2023-01-07T10:42:43.613Z,1012.97
2023-01-07T10:43:47.891Z,1012.95
2023-01-07T10:44:52.124Z,1012.95
2023-01-07T10:45:56.361Z,1012.89
2023-01-07T10:47:00.561Z,1012.86
2023-01-07T10:48:04.807Z,1012.79
2023-01-07T10:49:09.028Z,1012.77
2023-01-07T10:50:16.318Z,1012.75
2023-01-07T10:51:19.641Z,1012.76
2023-01-07T10:52:23.821Z,1012.74
2023-01-07T10:53:28.175Z,1012.74
2023-01-07T10:54:32.458Z,1012.74
2023-01-07T10:55:36.615Z,1012.75
2023-01-07T10:56:40.849Z,1012.71
2023-01-07T10:57:45.069Z,1012.69
2023-01-07T10:58:49.330Z,1012.67
2023-01-07T10:59:53.533Z,1012.64
2023-01-07T11:01:00.927Z,1012.64
2023-01-07T11:02:04.346Z,1012.63
2023-01-07T11:03:08.425Z,1012.63
2023-01-07T11:04:12.593Z,1012.61
2023-01-07T11:05:16.897Z,1012.60
2023-01-07T11:06:21.140Z,1012.59
2023-01-07T11:07:25.381Z,1012.58
2023-01-07T11:08:29.726Z,1012.58
2023-01-07T11:09:33.931Z,1012.58
2023-01-07T11:10:41.299Z,1012.58
2023-01-07T11:11:44.447Z,1012.55
2023-01-07T11:12:48.683Z,1012.53
2023-01-07T11:13:52.945Z,1012.52
2023-01-07T11:14:57.193Z,1012.54
2023-01-07T11:16:01.443Z,1012.52
2023-01-07T11:17:05.712Z,1012.54
2023-01-07T11:18:11.639Z,1012.51
2023-01-07T11:19:14.251Z,1012.48
2023-01-07T11:20:18.552Z,1012.46
2023-01-07T11:21:42.684Z,1012.47
2023-01-07T11:22:27.066Z,1012.46
2023-01-07T11:23:31.315Z,1012.43
2023-01-07T11:24:35.631Z,1012.43
2023-01-07T11:25:39.821Z,1012.41
2023-01-07T11:26:44.193Z,1012.42
2023-01-07T11:27:48.465Z,1012.39
2023-01-07T11:28:52.716Z,1012.40
2023-01-07T11:29:56.909Z,1012.38
2023-01-07T11:31:01.161Z,1012.40
2023-01-07T11:32:05.663Z,1012.37
2023-01-07T11:33:09.662Z,1012.40
2023-01-07T11:34:13.927Z,1012.39
2023-01-07T11:35:18.180Z,1012.40
2023-01-07T11:36:22.383Z,1012.38
2023-01-07T11:37:26.633Z,1012.40
2023-01-07T11:38:30.983Z,1012.38
2023-01-07T11:39:35.181Z,1012.38
2023-01-07T11:40:39.395Z,1012.37
2023-01-07T11:41:43.652Z,1012.34
2023-01-07T11:42:48.034Z,1012.32
2023-01-07T11:43:52.213Z,1012.34
2023-01-07T11:44:56.399Z,1012.35
2023-01-07T11:46:21.441Z,1012.34
2023-01-07T11:47:17.813Z,1012.32
2023-01-07T11:48:22.117Z,1012.32
2023-01-07T11:49:26.432Z,1012.30
2023-01-07T11:50:30.684Z,1012.29
2023-01-07T11:51:34.785Z,1012.28
2023-01-07T11:52:39.112Z,1012.25
2023-01-07T11:53:43.434Z,1012.25
2023-01-07T11:54:47.613Z,1012.21
2023-01-07T11:55:51.871Z,1012.20
2023-01-07T11:56:56.146Z,1012.20
2023-01-07T11:58:28.203Z,1012.17
2023-01-07T11:59:04.626Z,1012.17
2023-01-07T12:00:08.871Z,1012.16
2023-01-07T12:01:13.163Z,1012.17
2023-01-07T12:02:17.414Z,1012.12
2023-01-07T12:03:21.695Z,1012.07
2023-01-07T12:04:25.885Z,1012.04
2023-01-07T12:05:30.165Z,1012.05
2023-01-07T12:06:34.412Z,1012.05
2023-01-07T12:07:40.283Z,1012.02
2023-01-07T12:08:42.884Z,1012.03
2023-01-07T12:09:47.138Z,1012.04
2023-01-07T12:10:51.535Z,1012.05
2023-01-07T12:11:55.725Z,1012.02
2023-01-07T12:12:59.965Z,1012.01
2023-01-07T12:14:04.337Z,1012.02
2023-01-07T12:15:08.425Z,1011.98
2023-01-07T12:16:12.688Z,1011.95
2023-01-07T12:17:16.894Z,1011.99
2023-01-07T12:18:22.264Z,1011.96
2023-01-07T12:19:26.197Z,1011.95
2023-01-07T12:20:30.332Z,1011.95
2023-01-07T12:21:34.704Z,1011.91
2023-01-07T12:22:38.935Z,1011.91
2023-01-07T12:23:43.250Z,1011.92
2023-01-07T12:24:47.470Z,1011.91
2023-01-07T12:25:51.793Z,1011.91
2023-01-07T12:26:55.975Z,1011.92
2023-01-07T12:28:00.252Z,1011.91
2023-01-07T12:29:18.641Z,1011.91
2023-01-07T12:30:21.647Z,1011.89
2023-01-07T12:31:25.865Z,1011.89
2023-01-07T12:32:30.035Z,1011.88
2023-01-07T12:33:34.281Z,1011.85
2023-01-07T12:34:38.536Z,1011.82
2023-01-07T12:35:42.815Z,1011.79
2023-01-07T12:36:47.047Z,1011.77
2023-01-07T12:37:51.305Z,1011.77
2023-01-07T12:38:55.503Z,1011.78
2023-01-07T12:39:59.754Z,1011.78
2023-01-07T12:41:03.927Z,1011.79
2023-01-07T12:42:08.229Z,1011.75
2023-01-07T12:43:12.467Z,1011.75
2023-01-07T12:44:16.697Z,1011.72
2023-01-07T12:45:21.030Z,1011.72
2023-01-07T12:46:25.194Z,1011.70
2023-01-07T12:47:30.660Z,1011.67
2023-01-07T12:48:33.639Z,1011.67
2023-01-07T12:49:37.888Z,1011.66
2023-01-07T12:50:42.149Z,1011.65
2023-01-07T12:51:46.464Z,1011.65
2023-01-07T12:52:50.698Z,1011.64
2023-01-07T12:53:54.951Z,1011.62
2023-01-07T12:54:59.238Z,1011.60
2023-01-07T12:56:03.450Z,1011.57
2023-01-07T12:57:07.696Z,1011.56
2023-01-07T12:58:11.920Z,1011.53
2023-01-07T12:59:47.368Z,1011.52
2023-01-07T13:00:20.495Z,1011.49
2023-01-07T13:01:24.942Z,1011.51
2023-01-07T13:02:29.057Z,1011.52